Terminal Aerodrome Forecast
Issued by NWS

Home | Current Version | Previous Version | Text Only | Print | Product List | Glossary On
Versions: 1 2 3 4 5 6 7 8 9 10 11 12 13 14 15 16 17 18 19 20 21 22 23 24
000
FTUS42 KGSP 111100
TAFAND
TAF
KAND 111125Z 1112/1212 07003KT P6SM BKN250
      TEMPO 1112/1113 6SM BR
     FM111300 05004KT P6SM SCT060 BKN250
     FM111600 06005KT P6SM SCT060
     FM120400 00000KT P6SM SCT060
     FM120900 00000KT 4SM BR SCT060=

USA.gov is the U.S. government's official web portal to all federal, state and local government web resources and services.